sensor_id;sensor_type;location;lat;lon;timestamp;temperature;humidity
64939;DHT22;51453;47.738;7.420;2023-07-13T00:00:21;20.80;99.90
64939;DHT22;51453;47.738;7.420;2023-07-13T00:02:47;20.80;99.90
64939;DHT22;51453;47.738;7.420;2023-07-13T00:05:13;20.80;99.90
64939;DHT22;51453;47.738;7.420;2023-07-13T00:07:38;20.70;99.90
64939;DHT22;51453;47.738;7.420;2023-07-13T00:10:05;20.70;99.90
64939;DHT22;51453;47.738;7.420;2023-07-13T00:12:34;20.80;99.90
64939;DHT22;51453;47.738;7.420;2023-07-13T00:15:03;20.80;99.90
64939;DHT22;51453;47.738;7.420;2023-07-13T00:17:29;20.80;99.90
64939;DHT22;51453;47.738;7.420;2023-07-13T00:19:56;20.80;99.90
64939;DHT22;51453;47.738;7.420;2023-07-13T00:22:22;20.70;99.90
64939;DHT22;51453;47.738;7.420;2023-07-13T00:24:51;20.70;99.90
64939;DHT22;51453;47.738;7.420;2023-07-13T00:27:17;20.70;99.90
64939;DHT22;51453;47.738;7.420;2023-07-13T00:29:44;20.70;99.90
64939;DHT22;51453;47.738;7.420;2023-07-13T00:32:10;20.70;99.90
64939;DHT22;51453;47.738;7.420;2023-07-13T00:34:37;20.60;99.90
64939;DHT22;51453;47.738;7.420;2023-07-13T00:37:04;20.60;99.90
64939;DHT22;51453;47.738;7.420;2023-07-13T00:39:34;20.60;99.90
64939;DHT22;51453;47.738;7.420;2023-07-13T00:42:01;20.60;99.90
64939;DHT22;51453;47.738;7.420;2023-07-13T00:44:26;20.60;99.90
64939;DHT22;51453;47.738;7.420;2023-07-13T00:46:52;20.60;99.90
64939;DHT22;51453;47.738;7.420;2023-07-13T00:49:22;20.60;99.90
64939;DHT22;51453;47.738;7.420;2023-07-13T00:51:51;20.60;99.90
64939;DHT22;51453;47.738;7.420;2023-07-13T00:54:22;20.50;99.90
64939;DHT22;51453;47.738;7.420;2023-07-13T00:56:50;20.50;99.90
64939;DHT22;51453;47.738;7.420;2023-07-13T00:59:17;20.50;99.90
64939;DHT22;51453;47.738;7.420;2023-07-13T01:01:44;20.50;99.90
64939;DHT22;51453;47.738;7.420;2023-07-13T01:04:10;20.50;99.90
64939;DHT22;51453;47.738;7.420;2023-07-13T01:06:37;20.40;99.90
64939;DHT22;51453;47.738;7.420;2023-07-13T01:09:03;20.40;99.90
64939;DHT22;51453;47.738;7.420;2023-07-13T01:11:29;20.40;99.90
64939;DHT22;51453;47.738;7.420;2023-07-13T01:13:55;20.40;99.90
64939;DHT22;51453;47.738;7.420;2023-07-13T01:16:41;20.30;99.90
64939;DHT22;51453;47.738;7.420;2023-07-13T01:21:51;20.30;99.90
64939;DHT22;51453;47.738;7.420;2023-07-13T01:24:17;20.30;99.90
64939;DHT22;51453;47.738;7.420;2023-07-13T01:26:42;20.30;99.90
64939;DHT22;51453;47.738;7.420;2023-07-13T01:29:08;20.30;99.90
64939;DHT22;51453;47.738;7.420;2023-07-13T01:31:33;20.30;99.90
64939;DHT22;51453;47.738;7.420;2023-07-13T01:33:59;20.30;99.90
64939;DHT22;51453;47.738;7.420;2023-07-13T01:36:25;20.30;99.90
64939;DHT22;51453;47.738;7.420;2023-07-13T01:38:51;20.30;99.90
64939;DHT22;51453;47.738;7.420;2023-07-13T01:41:16;20.20;99.90
64939;DHT22;51453;47.738;7.420;2023-07-13T01:43:42;20.20;99.90
64939;DHT22;51453;47.738;7.420;2023-07-13T01:46:08;20.20;99.90
64939;DHT22;51453;47.738;7.420;2023-07-13T01:48:33;20.20;99.90
64939;DHT22;51453;47.738;7.420;2023-07-13T01:50:59;20.10;99.90
64939;DHT22;51453;47.738;7.420;2023-07-13T01:53:25;20.10;99.90
64939;DHT22;51453;47.738;7.420;2023-07-13T01:55:50;20.20;99.90
64939;DHT22;51453;47.738;7.420;2023-07-13T01:58:16;20.20;99.90
64939;DHT22;51453;47.738;7.420;2023-07-13T02:00:42;20.20;99.90
64939;DHT22;51453;47.738;7.420;2023-07-13T02:03:07;20.20;99.90
64939;DHT22;51453;47.738;7.420;2023-07-13T02:05:33;20.20;99.90
64939;DHT22;51453;47.738;7.420;2023-07-13T02:07:59;20.20;99.90
64939;DHT22;51453;47.738;7.420;2023-07-13T02:10:24;20.10;99.90
64939;DHT22;51453;47.738;7.420;2023-07-13T02:12:50;20.10;99.90
64939;DHT22;51453;47.738;7.420;2023-07-13T02:15:17;20.10;99.90
64939;DHT22;51453;47.738;7.420;2023-07-13T02:17:43;20.10;99.90
64939;DHT22;51453;47.738;7.420;2023-07-13T02:20:09;20.00;99.90
64939;DHT22;51453;47.738;7.420;2023-07-13T02:22:34;20.00;99.90
64939;DHT22;51453;47.738;7.420;2023-07-13T02:25:00;20.00;99.90
64939;DHT22;51453;47.738;7.420;2023-07-13T02:27:26;20.00;99.90
64939;DHT22;51453;47.738;7.420;2023-07-13T02:29:52;20.00;99.90
64939;DHT22;51453;47.738;7.420;2023-07-13T02:32:18;20.00;99.90
64939;DHT22;51453;47.738;7.420;2023-07-13T02:34:44;20.00;99.90
64939;DHT22;51453;47.738;7.420;2023-07-13T02:37:10;20.00;99.90
64939;DHT22;51453;47.738;7.420;2023-07-13T02:39:35;20.00;99.90
64939;DHT22;51453;47.738;7.420;2023-07-13T02:42:01;20.00;99.90
64939;DHT22;51453;47.738;7.420;2023-07-13T02:44:27;20.00;99.90
64939;DHT22;51453;47.738;7.420;2023-07-13T02:46:52;19.90;99.90
64939;DHT22;51453;47.738;7.420;2023-07-13T02:49:18;19.90;99.90
64939;DHT22;51453;47.738;7.420;2023-07-13T02:51:44;19.90;99.90
64939;DHT22;51453;47.738;7.420;2023-07-13T02:54:10;19.90;99.90
64939;DHT22;51453;47.738;7.420;2023-07-13T02:56:37;19.90;99.90
64939;DHT22;51453;47.738;7.420;2023-07-13T02:59:04;19.90;99.90
64939;DHT22;51453;47.738;7.420;2023-07-13T03:01:30;19.90;99.90
64939;DHT22;51453;47.738;7.420;2023-07-13T03:03:55;19.90;99.90
64939;DHT22;51453;47.738;7.420;2023-07-13T03:06:21;19.90;99.90
64939;DHT22;51453;47.738;7.420;2023-07-13T03:08:48;19.80;99.90
64939;DHT22;51453;47.738;7.420;2023-07-13T03:11:19;19.90;99.90
64939;DHT22;51453;47.738;7.420;2023-07-13T03:13:45;19.80;99.90
64939;DHT22;51453;47.738;7.420;2023-07-13T03:16:11;19.80;99.90
64939;DHT22;51453;47.738;7.420;2023-07-13T03:18:37;19.80;99.90
64939;DHT22;51453;47.738;7.420;2023-07-13T03:21:04;19.80;99.90
64939;DHT22;51453;47.738;7.420;2023-07-13T03:23:30;19.80;99.90
64939;DHT22;51453;47.738;7.420;2023-07-13T03:26:14;19.80;99.90
64939;DHT22;51453;47.738;7.420;2023-07-13T03:28:41;19.80;99.90
64939;DHT22;51453;47.738;7.420;2023-07-13T03:31:09;19.70;99.90
64939;DHT22;51453;47.738;7.420;2023-07-13T03:33:36;19.80;99.90
64939;DHT22;51453;47.738;7.420;2023-07-13T03:36:03;19.80;99.90
64939;DHT22;51453;47.738;7.420;2023-07-13T03:38:29;19.70;99.90
64939;DHT22;51453;47.738;7.420;2023-07-13T03:40:55;19.80;99.90
64939;DHT22;51453;47.738;7.420;2023-07-13T03:43:20;19.80;99.90
64939;DHT22;51453;47.738;7.420;2023-07-13T03:45:46;19.80;99.90
64939;DHT22;51453;47.738;7.420;2023-07-13T03:48:12;19.80;99.90
64939;DHT22;51453;47.738;7.420;2023-07-13T03:50:38;19.80;99.90
64939;DHT22;51453;47.738;7.420;2023-07-13T03:53:04;19.70;99.90
64939;DHT22;51453;47.738;7.420;2023-07-13T03:55:30;19.80;99.90
64939;DHT22;51453;47.738;7.420;2023-07-13T03:58:25;19.80;99.90
64939;DHT22;51453;47.738;7.420;2023-07-13T04:00:52;19.80;99.90
64939;DHT22;51453;47.738;7.420;2023-07-13T04:03:18;19.80;99.90
64939;DHT22;51453;47.738;7.420;2023-07-13T04:05:43;19.70;99.90
64939;DHT22;51453;47.738;7.420;2023-07-13T04:08:09;19.80;99.90
64939;DHT22;51453;47.738;7.420;2023-07-13T04:10:34;19.80;99.90
64939;DHT22;51453;47.738;7.420;2023-07-13T04:13:00;19.80;99.90
64939;DHT22;51453;47.738;7.420;2023-07-13T04:15:28;19.70;99.90
64939;DHT22;51453;47.738;7.420;2023-07-13T04:17:54;19.70;99.90
64939;DHT22;51453;47.738;7.420;2023-07-13T04:20:19;19.80;99.90
64939;DHT22;51453;47.738;7.420;2023-07-13T04:22:46;19.80;99.90
64939;DHT22;51453;47.738;7.420;2023-07-13T04:25:11;19.80;99.90
64939;DHT22;51453;47.738;7.420;2023-07-13T04:27:37;19.80;99.90
64939;DHT22;51453;47.738;7.420;2023-07-13T04:30:05;19.80;99.90
64939;DHT22;51453;47.738;7.420;2023-07-13T04:32:31;19.80;99.90
64939;DHT22;51453;47.738;7.420;2023-07-13T04:34:57;19.80;99.90
64939;DHT22;51453;47.738;7.420;2023-07-13T04:37:25;19.80;99.90
64939;DHT22;51453;47.738;7.420;2023-07-13T04:39:51;19.80;99.90
64939;DHT22;51453;47.738;7.420;2023-07-13T04:42:17;19.80;99.90
64939;DHT22;51453;47.738;7.420;2023-07-13T04:44:48;19.80;99.90
64939;DHT22;51453;47.738;7.420;2023-07-13T04:47:14;19.80;99.90
64939;DHT22;51453;47.738;7.420;2023-07-13T04:49:40;19.80;99.90
64939;DHT22;51453;47.738;7.420;2023-07-13T04:52:06;19.80;99.90
64939;DHT22;51453;47.738;7.420;2023-07-13T04:54:35;19.80;99.90
64939;DHT22;51453;47.738;7.420;2023-07-13T04:57:03;19.90;99.90
64939;DHT22;51453;47.738;7.420;2023-07-13T04:59:34;20.10;99.90
64939;DHT22;51453;47.738;7.420;2023-07-13T05:02:00;20.50;99.90
64939;DHT22;51453;47.738;7.420;2023-07-13T05:04:27;21.00;99.90
64939;DHT22;51453;47.738;7.420;2023-07-13T05:06:52;21.50;99.90
64939;DHT22;51453;47.738;7.420;2023-07-13T05:09:18;21.80;99.90
64939;DHT22;51453;47.738;7.420;2023-07-13T05:11:44;21.90;99.90
64939;DHT22;51453;47.738;7.420;2023-07-13T05:14:10;22.10;99.90
64939;DHT22;51453;47.738;7.420;2023-07-13T05:16:36;22.20;99.90
64939;DHT22;51453;47.738;7.420;2023-07-13T05:19:02;22.40;99.90
64939;DHT22;51453;47.738;7.420;2023-07-13T05:21:28;22.60;99.90
64939;DHT22;51453;47.738;7.420;2023-07-13T05:23:54;22.80;99.90
64939;DHT22;51453;47.738;7.420;2023-07-13T05:26:19;23.10;99.90
64939;DHT22;51453;47.738;7.420;2023-07-13T05:28:46;23.30;99.90
64939;DHT22;51453;47.738;7.420;2023-07-13T05:31:12;23.60;99.90
64939;DHT22;51453;47.738;7.420;2023-07-13T05:33:38;23.70;99.90
64939;DHT22;51453;47.738;7.420;2023-07-13T05:36:03;23.80;99.90
64939;DHT22;51453;47.738;7.420;2023-07-13T05:38:29;23.70;99.90
64939;DHT22;51453;47.738;7.420;2023-07-13T05:40:56;23.80;99.90
64939;DHT22;51453;47.738;7.420;2023-07-13T05:43:22;23.90;99.90
64939;DHT22;51453;47.738;7.420;2023-07-13T05:45:48;24.00;99.90
64939;DHT22;51453;47.738;7.420;2023-07-13T05:48:15;24.20;99.90
64939;DHT22;51453;47.738;7.420;2023-07-13T05:50:41;24.30;99.90
64939;DHT22;51453;47.738;7.420;2023-07-13T05:53:06;24.40;99.90
64939;DHT22;51453;47.738;7.420;2023-07-13T05:55:32;24.60;99.90
64939;DHT22;51453;47.738;7.420;2023-07-13T05:57:59;24.70;99.90
64939;DHT22;51453;47.738;7.420;2023-07-13T06:00:26;24.80;99.90
64939;DHT22;51453;47.738;7.420;2023-07-13T06:02:51;24.90;99.90
64939;DHT22;51453;47.738;7.420;2023-07-13T06:05:17;24.90;99.90
64939;DHT22;51453;47.738;7.420;2023-07-13T06:07:43;24.90;99.90
64939;DHT22;51453;47.738;7.420;2023-07-13T06:10:09;24.90;99.90
64939;DHT22;51453;47.738;7.420;2023-07-13T06:12:35;24.80;99.90
64939;DHT22;51453;47.738;7.420;2023-07-13T06:15:00;24.90;99.90
64939;DHT22;51453;47.738;7.420;2023-07-13T06:17:26;24.90;99.90
64939;DHT22;51453;47.738;7.420;2023-07-13T06:19:51;24.90;99.90
64939;DHT22;51453;47.738;7.420;2023-07-13T06:22:17;24.90;99.90
64939;DHT22;51453;47.738;7.420;2023-07-13T06:24:43;24.80;99.90
64939;DHT22;51453;47.738;7.420;2023-07-13T06:27:08;24.80;99.90
64939;DHT22;51453;47.738;7.420;2023-07-13T06:29:34;24.80;99.90
64939;DHT22;51453;47.738;7.420;2023-07-13T06:32:00;24.70;99.90
64939;DHT22;51453;47.738;7.420;2023-07-13T06:34:26;24.70;99.90
64939;DHT22;51453;47.738;7.420;2023-07-13T06:36:52;24.70;99.90
64939;DHT22;51453;47.738;7.420;2023-07-13T06:39:17;24.70;99.90
64939;DHT22;51453;47.738;7.420;2023-07-13T06:41:43;24.60;99.90
64939;DHT22;51453;47.738;7.420;2023-07-13T06:44:08;24.60;99.90
64939;DHT22;51453;47.738;7.420;2023-07-13T06:46:34;24.60;99.90
64939;DHT22;51453;47.738;7.420;2023-07-13T06:49:00;24.60;99.90
64939;DHT22;51453;47.738;7.420;2023-07-13T06:51:25;24.60;99.90
64939;DHT22;51453;47.738;7.420;2023-07-13T06:53:51;24.60;99.90
64939;DHT22;51453;47.738;7.420;2023-07-13T06:56:17;24.60;99.90
64939;DHT22;51453;47.738;7.420;2023-07-13T06:58:43;24.60;99.90
64939;DHT22;51453;47.738;7.420;2023-07-13T07:01:09;24.50;99.90
64939;DHT22;51453;47.738;7.420;2023-07-13T07:03:35;24.50;99.90
64939;DHT22;51453;47.738;7.420;2023-07-13T07:08:39;24.40;99.90
64939;DHT22;51453;47.738;7.420;2023-07-13T07:11:07;24.40;99.90
64939;DHT22;51453;47.738;7.420;2023-07-13T07:13:33;24.40;99.90
64939;DHT22;51453;47.738;7.420;2023-07-13T07:15:59;24.40;99.90
64939;DHT22;51453;47.738;7.420;2023-07-13T07:18:26;24.40;99.90
64939;DHT22;51453;47.738;7.420;2023-07-13T07:20:52;24.40;99.90
64939;DHT22;51453;47.738;7.420;2023-07-13T07:23:17;24.40;99.90
64939;DHT22;51453;47.738;7.420;2023-07-13T07:25:44;24.40;99.90
64939;DHT22;51453;47.738;7.420;2023-07-13T07:28:12;24.50;99.90
64939;DHT22;51453;47.738;7.420;2023-07-13T07:30:42;24.40;99.90
64939;DHT22;51453;47.738;7.420;2023-07-13T07:33:08;24.50;99.90
64939;DHT22;51453;47.738;7.420;2023-07-13T07:35:34;24.50;99.90
64939;DHT22;51453;47.738;7.420;2023-07-13T07:37:59;24.50;99.90
64939;DHT22;51453;47.738;7.420;2023-07-13T07:40:25;24.40;99.90
64939;DHT22;51453;47.738;7.420;2023-07-13T07:42:52;24.40;99.90
64939;DHT22;51453;47.738;7.420;2023-07-13T07:45:18;24.50;99.90
64939;DHT22;51453;47.738;7.420;2023-07-13T07:47:44;24.50;99.90
64939;DHT22;51453;47.738;7.420;2023-07-13T07:50:10;24.40;99.90
64939;DHT22;51453;47.738;7.420;2023-07-13T07:52:35;24.40;99.90
64939;DHT22;51453;47.738;7.420;2023-07-13T07:55:01;24.50;99.90
64939;DHT22;51453;47.738;7.420;2023-07-13T07:57:27;24.50;99.90
64939;DHT22;51453;47.738;7.420;2023-07-13T07:59:52;24.50;99.90
64939;DHT22;51453;47.738;7.420;2023-07-13T08:02:18;24.50;99.90
64939;DHT22;51453;47.738;7.420;2023-07-13T08:04:43;24.60;99.90
64939;DHT22;51453;47.738;7.420;2023-07-13T08:07:09;24.60;99.90
64939;DHT22;51453;47.738;7.420;2023-07-13T08:09:35;24.70;99.90
64939;DHT22;51453;47.738;7.420;2023-07-13T08:12:00;24.70;99.90
64939;DHT22;51453;47.738;7.420;2023-07-13T08:14:26;24.80;99.90
64939;DHT22;51453;47.738;7.420;2023-07-13T08:16:51;24.70;99.90
64939;DHT22;51453;47.738;7.420;2023-07-13T08:19:17;24.70;99.90
64939;DHT22;51453;47.738;7.420;2023-07-13T08:21:42;24.60;99.90
64939;DHT22;51453;47.738;7.420;2023-07-13T08:24:09;24.40;99.90
64939;DHT22;51453;47.738;7.420;2023-07-13T08:26:35;24.40;99.90
64939;DHT22;51453;47.738;7.420;2023-07-13T08:29:01;24.50;99.90
64939;DHT22;51453;47.738;7.420;2023-07-13T08:31:27;24.60;99.90
64939;DHT22;51453;47.738;7.420;2023-07-13T08:33:53;24.60;99.90
64939;DHT22;51453;47.738;7.420;2023-07-13T08:36:18;24.60;99.90
64939;DHT22;51453;47.738;7.420;2023-07-13T08:38:44;24.60;99.90
64939;DHT22;51453;47.738;7.420;2023-07-13T08:41:13;24.60;99.90
64939;DHT22;51453;47.738;7.420;2023-07-13T08:43:40;24.60;99.90
64939;DHT22;51453;47.738;7.420;2023-07-13T08:48:56;24.70;99.90
64939;DHT22;51453;47.738;7.420;2023-07-13T08:56:59;25.00;99.90
64939;DHT22;51453;47.738;7.420;2023-07-13T08:59:28;25.10;99.90
64939;DHT22;51453;47.738;7.420;2023-07-13T09:05:03;25.30;99.90
64939;DHT22;51453;47.738;7.420;2023-07-13T09:10:19;25.30;99.90
64939;DHT22;51453;47.738;7.420;2023-07-13T09:13:11;25.30;99.90
64939;DHT22;51453;47.738;7.420;2023-07-13T09:15:44;25.20;99.90
64939;DHT22;51453;47.738;7.420;2023-07-13T09:18:16;25.10;99.90
64939;DHT22;51453;47.738;7.420;2023-07-13T09:20:48;25.10;99.90
64939;DHT22;51453;47.738;7.420;2023-07-13T09:23:18;25.10;99.90
64939;DHT22;51453;47.738;7.420;2023-07-13T09:25:48;25.20;99.90
64939;DHT22;51453;47.738;7.420;2023-07-13T09:28:27;25.20;99.90
64939;DHT22;51453;47.738;7.420;2023-07-13T09:31:20;25.10;99.90
64939;DHT22;51453;47.738;7.420;2023-07-13T09:33:48;25.10;99.90
64939;DHT22;51453;47.738;7.420;2023-07-13T09:38:53;25.10;99.90
64939;DHT22;51453;47.738;7.420;2023-07-13T09:41:33;25.10;99.90
64939;DHT22;51453;47.738;7.420;2023-07-13T09:44:15;25.00;99.90
64939;DHT22;51453;47.738;7.420;2023-07-13T09:47:01;25.10;99.90
64939;DHT22;51453;47.738;7.420;2023-07-13T09:49:31;25.10;99.90
64939;DHT22;51453;47.738;7.420;2023-07-13T09:52:07;25.20;99.90
64939;DHT22;51453;47.738;7.420;2023-07-13T09:54:36;25.20;99.90
64939;DHT22;51453;47.738;7.420;2023-07-13T09:57:11;25.20;99.90
64939;DHT22;51453;47.738;7.420;2023-07-13T09:59:41;25.30;99.90
64939;DHT22;51453;47.738;7.420;2023-07-13T10:02:30;25.40;99.90
64939;DHT22;51453;47.738;7.420;2023-07-13T10:05:01;25.40;99.90
64939;DHT22;51453;47.738;7.420;2023-07-13T10:07:29;25.40;99.90
64939;DHT22;51453;47.738;7.420;2023-07-13T10:09:59;25.30;99.90
64939;DHT22;51453;47.738;7.420;2023-07-13T10:12:30;25.10;99.90
64939;DHT22;51453;47.738;7.420;2023-07-13T10:15:02;25.00;99.90
64939;DHT22;51453;47.738;7.420;2023-07-13T10:17:31;25.00;99.90
64939;DHT22;51453;47.738;7.420;2023-07-13T10:20:03;25.00;99.90
64939;DHT22;51453;47.738;7.420;2023-07-13T10:22:46;25.00;99.90
64939;DHT22;51453;47.738;7.420;2023-07-13T10:25:18;25.10;99.90
64939;DHT22;51453;47.738;7.420;2023-07-13T10:27:45;25.40;99.90
64939;DHT22;51453;47.738;7.420;2023-07-13T10:30:35;25.40;99.90
64939;DHT22;51453;47.738;7.420;2023-07-13T10:33:08;25.50;99.90
64939;DHT22;51453;47.738;7.420;2023-07-13T10:35:37;25.60;99.90
64939;DHT22;51453;47.738;7.420;2023-07-13T10:38:18;25.70;99.90
64939;DHT22;51453;47.738;7.420;2023-07-13T10:41:03;25.70;99.90
64939;DHT22;51453;47.738;7.420;2023-07-13T10:43:38;25.70;99.90
64939;DHT22;51453;47.738;7.420;2023-07-13T10:46:08;25.70;99.90
64939;DHT22;51453;47.738;7.420;2023-07-13T10:48:35;25.80;99.90
64939;DHT22;51453;47.738;7.420;2023-07-13T10:51:04;25.90;99.90
64939;DHT22;51453;47.738;7.420;2023-07-13T10:53:35;25.90;99.90
64939;DHT22;51453;47.738;7.420;2023-07-13T10:58:40;25.90;99.90
64939;DHT22;51453;47.738;7.420;2023-07-13T11:03:37;25.90;99.90
64939;DHT22;51453;47.738;7.420;2023-07-13T11:06:08;25.90;99.90
64939;DHT22;51453;47.738;7.420;2023-07-13T11:08:58;26.00;99.90
64939;DHT22;51453;47.738;7.420;2023-07-13T11:19:37;26.20;99.90
64939;DHT22;51453;47.738;7.420;2023-07-13T11:25:02;26.40;99.90
64939;DHT22;51453;47.738;7.420;2023-07-13T11:27:46;26.50;99.90
64939;DHT22;51453;47.738;7.420;2023-07-13T11:35:37;26.50;99.90
64939;DHT22;51453;47.738;7.420;2023-07-13T11:38:19;26.50;99.90
64939;DHT22;51453;47.738;7.420;2023-07-13T11:40:46;26.40;99.90
64939;DHT22;51453;47.738;7.420;2023-07-13T11:43:14;26.50;99.90
64939;DHT22;51453;47.738;7.420;2023-07-13T11:45:41;26.60;99.90
64939;DHT22;51453;47.738;7.420;2023-07-13T11:48:23;26.60;99.90
64939;DHT22;51453;47.738;7.420;2023-07-13T11:51:03;26.70;99.90
64939;DHT22;51453;47.738;7.420;2023-07-13T11:53:37;26.70;99.90
64939;DHT22;51453;47.738;7.420;2023-07-13T11:56:03;26.50;99.90
64939;DHT22;51453;47.738;7.420;2023-07-13T11:58:29;26.50;99.90
64939;DHT22;51453;47.738;7.420;2023-07-13T12:00:58;26.60;99.90
64939;DHT22;51453;47.738;7.420;2023-07-13T12:03:26;26.70;99.90
64939;DHT22;51453;47.738;7.420;2023-07-13T12:06:00;26.70;99.90
64939;DHT22;51453;47.738;7.420;2023-07-13T12:08:27;26.80;99.90
64939;DHT22;51453;47.738;7.420;2023-07-13T12:10:58;26.80;99.90
64939;DHT22;51453;47.738;7.420;2023-07-13T12:13:26;26.70;99.90
64939;DHT22;51453;47.738;7.420;2023-07-13T12:15:53;26.70;99.90
64939;DHT22;51453;47.738;7.420;2023-07-13T12:18:22;26.70;99.90
64939;DHT22;51453;47.738;7.420;2023-07-13T12:20:50;26.80;99.90
64939;DHT22;51453;47.738;7.420;2023-07-13T12:25:51;26.80;99.90
64939;DHT22;51453;47.738;7.420;2023-07-13T12:28:35;26.70;99.90
64939;DHT22;51453;47.738;7.420;2023-07-13T12:31:07;26.70;99.90
64939;DHT22;51453;47.738;7.420;2023-07-13T12:33:39;26.80;99.90
64939;DHT22;51453;47.738;7.420;2023-07-13T12:36:08;26.80;99.90
64939;DHT22;51453;47.738;7.420;2023-07-13T12:38:36;26.80;99.90
64939;DHT22;51453;47.738;7.420;2023-07-13T12:41:02;26.90;99.90
64939;DHT22;51453;47.738;7.420;2023-07-13T12:43:33;26.90;99.90
64939;DHT22;51453;47.738;7.420;2023-07-13T12:46:04;26.90;99.90
64939;DHT22;51453;47.738;7.420;2023-07-13T12:48:38;27.00;99.90
64939;DHT22;51453;47.738;7.420;2023-07-13T12:51:10;26.90;99.90
64939;DHT22;51453;47.738;7.420;2023-07-13T12:53:40;26.90;99.90
64939;DHT22;51453;47.738;7.420;2023-07-13T12:56:15;27.10;99.90
64939;DHT22;51453;47.738;7.420;2023-07-13T12:58:43;27.20;99.90
64939;DHT22;51453;47.738;7.420;2023-07-13T13:01:13;27.30;99.90
64939;DHT22;51453;47.738;7.420;2023-07-13T13:03:44;27.30;99.90
64939;DHT22;51453;47.738;7.420;2023-07-13T13:08:47;27.30;99.90
64939;DHT22;51453;47.738;7.420;2023-07-13T13:11:17;27.40;99.90
64939;DHT22;51453;47.738;7.420;2023-07-13T13:13:43;27.40;99.90
64939;DHT22;51453;47.738;7.420;2023-07-13T13:16:23;27.40;99.90
64939;DHT22;51453;47.738;7.420;2023-07-13T13:18:51;27.40;99.90
64939;DHT22;51453;47.738;7.420;2023-07-13T13:21:18;27.40;99.90
64939;DHT22;51453;47.738;7.420;2023-07-13T13:23:45;27.40;99.90
64939;DHT22;51453;47.738;7.420;2023-07-13T13:26:15;27.40;99.90
64939;DHT22;51453;47.738;7.420;2023-07-13T13:28:42;27.50;99.90
64939;DHT22;51453;47.738;7.420;2023-07-13T13:31:09;27.40;99.90
64939;DHT22;51453;47.738;7.420;2023-07-13T13:33:42;27.40;99.90
64939;DHT22;51453;47.738;7.420;2023-07-13T13:36:21;27.40;99.90
64939;DHT22;51453;47.738;7.420;2023-07-13T13:38:50;27.60;99.90
64939;DHT22;51453;47.738;7.420;2023-07-13T13:41:16;27.60;99.90
64939;DHT22;51453;47.738;7.420;2023-07-13T13:43:43;27.60;99.90
64939;DHT22;51453;47.738;7.420;2023-07-13T13:46:21;27.60;99.90
64939;DHT22;51453;47.738;7.420;2023-07-13T13:48:48;27.60;99.90
64939;DHT22;51453;47.738;7.420;2023-07-13T13:51:17;27.60;99.90
64939;DHT22;51453;47.738;7.420;2023-07-13T13:53:44;27.50;99.90
64939;DHT22;51453;47.738;7.420;2023-07-13T13:56:11;27.50;99.90
64939;DHT22;51453;47.738;7.420;2023-07-13T13:58:37;27.50;99.90
64939;DHT22;51453;47.738;7.420;2023-07-13T14:01:03;27.60;99.90
64939;DHT22;51453;47.738;7.420;2023-07-13T14:03:33;27.60;99.90
64939;DHT22;51453;47.738;7.420;2023-07-13T14:05:59;27.60;99.90
64939;DHT22;51453;47.738;7.420;2023-07-13T14:08:25;27.60;99.90
64939;DHT22;51453;47.738;7.420;2023-07-13T14:10:53;27.70;99.90
64939;DHT22;51453;47.738;7.420;2023-07-13T14:13:21;27.60;99.90
64939;DHT22;51453;47.738;7.420;2023-07-13T14:15:48;27.60;99.90
64939;DHT22;51453;47.738;7.420;2023-07-13T14:18:14;27.60;99.90
64939;DHT22;51453;47.738;7.420;2023-07-13T14:20:44;27.70;99.90
64939;DHT22;51453;47.738;7.420;2023-07-13T14:23:12;27.70;99.90
64939;DHT22;51453;47.738;7.420;2023-07-13T14:25:38;27.80;99.90
64939;DHT22;51453;47.738;7.420;2023-07-13T14:30:48;27.70;99.90
64939;DHT22;51453;47.738;7.420;2023-07-13T14:33:14;27.60;99.90
64939;DHT22;51453;47.738;7.420;2023-07-13T14:35:40;27.60;99.90
64939;DHT22;51453;47.738;7.420;2023-07-13T14:38:10;27.70;99.90
64939;DHT22;51453;47.738;7.420;2023-07-13T14:40:36;27.60;99.90
64939;DHT22;51453;47.738;7.420;2023-07-13T14:43:03;27.60;99.90
64939;DHT22;51453;47.738;7.420;2023-07-13T14:45:30;27.60;99.90
64939;DHT22;51453;47.738;7.420;2023-07-13T14:47:56;27.60;99.90
64939;DHT22;51453;47.738;7.420;2023-07-13T14:50:30;27.60;99.90
64939;DHT22;51453;47.738;7.420;2023-07-13T14:52:55;27.70;99.90
64939;DHT22;51453;47.738;7.420;2023-07-13T14:55:21;27.70;99.90
64939;DHT22;51453;47.738;7.420;2023-07-13T14:57:48;27.70;99.90
64939;DHT22;51453;47.738;7.420;2023-07-13T15:00:19;27.70;99.90
64939;DHT22;51453;47.738;7.420;2023-07-13T15:02:47;27.70;99.90
64939;DHT22;51453;47.738;7.420;2023-07-13T15:07:39;27.60;99.90
64939;DHT22;51453;47.738;7.420;2023-07-13T15:10:16;27.70;99.90
64939;DHT22;51453;47.738;7.420;2023-07-13T15:12:42;27.60;99.90
64939;DHT22;51453;47.738;7.420;2023-07-13T15:15:08;27.60;99.90
64939;DHT22;51453;47.738;7.420;2023-07-13T15:17:42;27.50;99.90
64939;DHT22;51453;47.738;7.420;2023-07-13T15:22:37;27.60;99.90
64939;DHT22;51453;47.738;7.420;2023-07-13T15:25:02;27.50;99.90
64939;DHT22;51453;47.738;7.420;2023-07-13T15:27:33;27.60;99.90
64939;DHT22;51453;47.738;7.420;2023-07-13T15:29:58;27.50;99.90
64939;DHT22;51453;47.738;7.420;2023-07-13T15:32:24;27.60;99.90
64939;DHT22;51453;47.738;7.420;2023-07-13T15:34:49;27.60;99.90
64939;DHT22;51453;47.738;7.420;2023-07-13T15:37:16;27.70;99.90
64939;DHT22;51453;47.738;7.420;2023-07-13T15:39:43;27.80;99.90
64939;DHT22;51453;47.738;7.420;2023-07-13T15:42:19;27.80;99.90
64939;DHT22;51453;47.738;7.420;2023-07-13T15:44:45;27.80;99.90
64939;DHT22;51453;47.738;7.420;2023-07-13T15:47:13;27.80;99.90
64939;DHT22;51453;47.738;7.420;2023-07-13T15:49:40;27.90;99.90
64939;DHT22;51453;47.738;7.420;2023-07-13T15:52:23;27.90;99.90
64939;DHT22;51453;47.738;7.420;2023-07-13T15:54:49;27.80;99.90
64939;DHT22;51453;47.738;7.420;2023-07-13T15:57:16;27.80;99.90
64939;DHT22;51453;47.738;7.420;2023-07-13T15:59:42;27.80;99.90
64939;DHT22;51453;47.738;7.420;2023-07-13T16:02:19;27.90;99.90
64939;DHT22;51453;47.738;7.420;2023-07-13T16:04:46;28.00;99.90
64939;DHT22;51453;47.738;7.420;2023-07-13T16:07:14;28.10;99.90
64939;DHT22;51453;47.738;7.420;2023-07-13T16:09:42;28.20;99.90
64939;DHT22;51453;47.738;7.420;2023-07-13T16:12:10;28.20;99.90
64939;DHT22;51453;47.738;7.420;2023-07-13T16:14:37;28.20;99.90
64939;DHT22;51453;47.738;7.420;2023-07-13T16:17:02;28.10;99.90
64939;DHT22;51453;47.738;7.420;2023-07-13T16:19:28;28.10;99.90
64939;DHT22;51453;47.738;7.420;2023-07-13T16:21:54;28.00;99.90
64939;DHT22;51453;47.738;7.420;2023-07-13T16:24:22;28.00;99.90
64939;DHT22;51453;47.738;7.420;2023-07-13T16:26:50;28.00;99.90
64939;DHT22;51453;47.738;7.420;2023-07-13T16:29:27;28.00;99.90
64939;DHT22;51453;47.738;7.420;2023-07-13T16:32:02;28.00;99.90